Time;durP1;ratioP1;P1;durP2;ratioP2;P2;SDS_P1;SDS_P2;PMS_P1;PMS_P2;Temp;Humidity;BMP_temperature;BMP_pressure;BME280_temperature;BME280_humidity;BME280_pressure;Samples;Min_cycle;Max_cycle;Signal;HPM_P1;HPM_P2
2022/04/27 00:08:28;;;;;;;10.93;4.03;;;;;;;15.19;61.60;100439.22;18436038;32;20413;-65
2022/04/27 00:18:33;;;;;;;8.60;4.12;;;;;;;15.09;61.46;100430.63;18435549;32;20093;-65
2022/04/27 00:28:36;;;;;;;7.68;3.42;;;;;;;15.39;59.96;100421.25;18435391;32;20650;-65
2022/04/27 00:38:41;;;;;;;8.43;3.50;;;;;;;15.17;60.66;100417.31;18435096;32;20089;-65
2022/04/27 00:48:44;;;;;;;6.10;3.35;;;;;;;14.94;60.74;100427.44;18434982;32;20113;-65
2022/04/27 00:58:49;;;;;;;9.35;3.58;;;;;;;14.91;59.58;100429.25;18434414;32;20389;-65
2022/04/27 01:08:54;;;;;;;6.75;3.03;;;;;;;14.56;60.55;100435.09;18434753;32;20417;-65
2022/04/27 01:18:59;;;;;;;8.60;3.17;;;;;;;14.90;58.06;100445.94;18434466;32;20102;-65
2022/04/27 01:29:04;;;;;;;7.57;3.20;;;;;;;14.86;58.98;100457.37;18433854;32;20101;-65
2022/04/27 01:39:08;;;;;;;5.70;2.65;;;;;;;14.78;59.75;100468.03;18434321;32;20085;-64
2022/04/27 01:49:13;;;;;;;7.43;2.90;;;;;;;15.02;57.23;100474.59;18433656;32;20115;-65
2022/04/27 01:59:17;;;;;;;5.55;2.65;;;;;;;14.98;58.88;100472.91;18432059;32;20107;-65
2022/04/27 02:09:22;;;;;;;7.20;2.58;;;;;;;15.26;56.66;100481.13;18432599;32;20102;-65
2022/04/27 02:19:25;;;;;;;7.95;3.40;;;;;;;15.14;58.71;100497.16;18432232;32;20374;-65
2022/04/27 02:29:29;;;;;;;6.28;2.90;;;;;;;14.72;60.85;100495.25;18430546;32;20114;-65
2022/04/27 02:39:32;;;;;;;7.55;2.87;;;;;;;14.52;63.04;100495.59;18430474;32;20097;-66
2022/04/27 02:59:58;;;;;;;8.70;3.30;;;;;;;13.36;65.23;100493.72;18410978;32;20110;-65
2022/04/27 03:10:03;;;;;;;7.87;3.28;;;;;;;14.20;62.98;100503.12;18424319;32;20449;-65
2022/04/27 03:20:07;;;;;;;8.00;3.05;;;;;;;14.33;63.58;100510.81;18423020;32;20174;-65
2022/04/27 03:30:12;;;;;;;7.97;3.60;;;;;;;14.17;64.50;100510.16;18422555;32;20471;-65
2022/04/27 03:40:16;;;;;;;9.65;3.65;;;;;;;14.11;64.40;100517.25;18426530;32;20089;-65
2022/04/27 03:50:20;;;;;;;10.13;3.20;;;;;;;14.02;65.59;100512.16;18434953;32;20374;-65
2022/04/27 04:00:24;;;;;;;7.30;3.28;;;;;;;14.22;63.99;100527.56;18434537;32;20123;-65
2022/04/27 04:10:28;;;;;;;7.32;3.12;;;;;;;14.26;63.34;100536.28;18434623;32;20132;-65
2022/04/27 04:20:37;;;;;;;11.12;3.55;;;;;;;14.57;61.14;100536.66;18430379;32;20124;-65
2022/04/27 04:30:41;;;;;;;9.10;3.20;;;;;;;14.20;63.52;100546.91;18427228;32;20477;-65
2022/04/27 04:40:44;;;;;;;8.07;2.90;;;;;;;14.28;62.80;100545.87;18414938;32;20093;-65
2022/04/27 04:50:49;;;;;;;9.43;3.45;;;;;;;14.24;63.26;100545.94;18432120;32;20116;-66
2022/04/27 05:00:52;;;;;;;8.00;3.20;;;;;;;14.20;63.86;100554.78;18430547;32;20101;-65
2022/04/27 05:10:57;;;;;;;7.78;2.97;;;;;;;14.28;63.91;100569.50;18434199;32;20481;-65
2022/04/27 05:21:00;;;;;;;9.98;3.50;;;;;;;14.48;63.25;100573.59;18432749;32;20111;-67
2022/04/27 05:41:25;;;;;;;;;;;;;;;15.22;61.80;100584.66;18433047;32;20150;-67
2022/04/27 05:51:30;;;;;;;6.65;2.92;;;;;;;15.92;57.70;100577.16;18432787;32;19985;-67
2022/04/27 06:01:34;;;;;;;5.62;2.60;;;;;;;16.37;57.38;100599.84;18431775;32;20100;-67
2022/04/27 06:11:38;;;;;;;7.65;2.92;;;;;;;17.91;51.45;100600.28;18430551;32;20129;-67
2022/04/27 06:21:42;;;;;;;5.30;2.22;;;;;;;18.62;49.36;100605.16;18427636;32;20101;-67
2022/04/27 06:31:46;;;;;;;6.72;2.65;;;;;;;18.66;48.35;100610.31;18425895;32;20097;-67
2022/04/27 06:41:50;;;;;;;8.65;3.72;;;;;;;17.97;49.84;100616.78;18416866;32;20119;-67
2022/04/27 06:51:54;;;;;;;7.43;3.00;;;;;;;17.52;50.47;100619.87;18431350;32;20411;-67
2022/04/27 07:01:57;;;;;;;7.30;2.55;;;;;;;17.09;53.34;100627.16;18415821;32;20133;-67
2022/04/27 07:12:02;;;;;;;7.40;2.67;;;;;;;17.15;53.29;100637.53;18413531;32;20418;-67
2022/04/27 07:22:06;;;;;;;8.02;2.42;;;;;;;16.64;54.00;100640.47;18421323;32;20097;-67
2022/04/27 07:32:10;;;;;;;6.15;2.45;;;;;;;17.11;53.88;100644.66;18388139;32;20112;-67
2022/04/27 07:42:15;;;;;;;6.53;2.87;;;;;;;19.54;50.36;100647.97;18350924;32;20097;-68
2022/04/27 07:52:20;;;;;;;6.72;3.08;;;;;;;20.89;44.62;100648.16;18363590;32;20120;-67
2022/04/27 08:02:23;;;;;;;7.28;3.35;;;;;;;20.21;43.66;100666.75;18362824;32;20108;-67
2022/04/27 08:12:28;;;;;;;7.28;3.37;;;;;;;19.09;46.10;100676.81;18348238;32;20098;-67
2022/04/27 08:22:31;;;;;;;7.18;3.20;;;;;;;18.03;50.60;100692.38;18381041;32;20101;-67
2022/04/27 08:32:36;;;;;;;5.93;2.60;;;;;;;18.07;50.02;100698.44;18431369;32;20114;-67
2022/04/27 08:42:39;;;;;;;7.57;3.20;;;;;;;17.74;51.36;100694.91;18434210;32;20357;-67
2022/04/27 08:52:47;;;;;;;7.80;3.40;;;;;;;17.77;51.36;100701.87;18434735;32;20073;-67
2022/04/27 09:02:55;;;;;;;8.35;3.33;;;;;;;17.37;52.24;100700.31;18420516;32;20358;-67
2022/04/27 09:13:00;;;;;;;6.40;2.78;;;;;;;16.94;53.78;100703.06;18434035;32;20116;-67
2022/04/27 09:23:04;;;;;;;6.40;2.72;;;;;;;17.14;53.68;100707.03;18432808;32;20092;-68
2022/04/27 09:33:08;;;;;;;8.23;3.12;;;;;;;16.67;54.54;100710.72;18432203;32;20093;-67
2022/04/27 09:43:13;;;;;;;7.18;3.03;;;;;;;16.66;53.22;100714.25;18432523;32;20093;-67
2022/04/27 09:53:19;;;;;;;7.97;3.47;;;;;;;16.63;54.19;100717.81;18433687;32;20111;-67
2022/04/27 10:03:22;;;;;;;7.97;3.12;;;;;;;16.60;56.21;100714.41;18417810;32;20179;-67
2022/04/27 10:13:28;;;;;;;7.57;3.20;;;;;;;16.85;56.40;100714.72;18430755;32;20130;-67
2022/04/27 10:23:32;;;;;;;8.63;3.50;;;;;;;16.61;57.50;100717.00;18416717;32;20093;-67
2022/04/27 10:33:44;;;;;;;8.10;3.83;;;;;;;17.05;56.69;100721.31;18431448;32;20101;-67
2022/04/27 10:43:48;;;;;;;9.30;3.75;;;;;;;17.02;57.06;100724.00;18429741;32;20072;-68
2022/04/27 10:54:04;;;;;;;9.00;3.90;;;;;;;17.09;56.64;100725.59;18430456;32;20107;-67
2022/04/27 11:04:14;;;;;;;11.35;3.90;;;;;;;17.11;56.56;100728.22;18429489;32;20442;-67
2022/04/27 11:14:19;;;;;;;9.93;4.22;;;;;;;17.03;56.57;100731.87;18414812;32;20097;-67
2022/04/27 11:24:23;;;;;;;10.68;4.07;;;;;;;16.70;57.93;100729.13;18428851;32;20103;-67
2022/04/27 11:34:28;;;;;;;10.48;4.10;;;;;;;16.38;59.58;100735.94;18428070;32;20097;-67
2022/04/27 11:44:38;;;;;;;11.27;4.40;;;;;;;16.13;60.62;100740.84;18426584;32;20093;-67
2022/04/27 11:54:42;;;;;;;8.88;3.87;;;;;;;16.37;59.94;100745.63;18427355;32;20097;-67
2022/04/27 12:04:46;;;;;;;9.15;4.15;;;;;;;16.30;59.92;100740.50;18435235;32;20093;-67
2022/04/27 12:14:51;;;;;;;8.48;4.15;;;;;;;16.15;60.91;100746.94;18436177;32;20722;-67
2022/04/27 12:25:01;;;;;;;8.82;4.15;;;;;;;16.09;60.74;100735.66;18420840;32;20119;-67
2022/04/27 12:45:28;;;;;;;10.43;5.00;;;;;;;15.60;62.99;100734.78;18434578;32;20123;-64
2022/04/27 12:55:32;;;;;;;10.55;4.90;;;;;;;16.11;61.73;100727.69;18433755;32;20515;-64
2022/04/27 13:05:37;;;;;;;8.13;4.20;;;;;;;15.65;64.85;100726.78;18434636;32;20108;-65
2022/04/27 13:15:41;;;;;;;10.98;4.15;;;;;;;15.04;67.06;100727.78;18430968;32;20101;-64
2022/04/27 13:25:45;;;;;;;10.52;4.60;;;;;;;14.97;67.48;100720.88;18430608;32;20645;-64
2022/04/27 13:35:50;;;;;;;8.65;4.00;;;;;;;15.18;67.75;100729.34;18431218;32;20119;-64
2022/04/27 13:45:53;;;;;;;10.15;4.35;;;;;;;14.95;67.94;100731.44;18432357;32;20082;-64
2022/04/27 13:55:58;;;;;;;12.00;4.28;;;;;;;14.68;69.12;100730.03;18417528;32;20191;-64
2022/04/27 14:06:01;;;;;;;10.20;4.12;;;;;;;14.91;68.36;100724.47;18424386;32;20101;-64
2022/04/27 14:26:39;;;;;;;10.77;4.85;;;;;;;14.93;67.45;100724.47;18230111;32;20137;-64
2022/04/27 14:36:43;;;;;;;12.32;5.57;;;;;;;14.99;67.11;100724.38;18217894;32;20482;-64
2022/04/27 14:46:47;;;;;;;9.95;4.70;;;;;;;14.81;67.39;100728.13;18217698;32;20164;-64
2022/04/27 14:56:52;;;;;;;12.98;5.12;;;;;;;15.00;66.67;100725.25;18328073;32;20164;-64
2022/04/27 15:06:55;;;;;;;10.70;4.43;;;;;;;14.94;66.64;100727.09;18430515;32;20116;-64
2022/04/27 15:17:00;;;;;;;11.32;5.03;;;;;;;14.83;67.11;100729.88;18429658;32;20094;-64
2022/04/27 15:27:04;;;;;;;11.05;4.30;;;;;;;14.98;66.87;100723.50;18429305;32;20184;-64
2022/04/27 15:37:11;;;;;;;10.38;4.62;;;;;;;14.97;66.92;100727.03;18421232;32;20115;-64
2022/04/27 15:47:15;;;;;;;13.60;5.87;;;;;;;14.81;67.82;100738.66;18437940;32;20085;-64
2022/04/27 15:57:19;;;;;;;8.60;4.00;;;;;;;14.66;68.99;100735.34;18422181;32;20141;-63
2022/04/27 16:07:23;;;;;;;8.35;3.65;;;;;;;14.63;70.64;100739.75;18436059;32;20087;-64
2022/04/27 16:17:27;;;;;;;9.02;3.90;;;;;;;14.24;73.46;100740.25;18421903;32;20119;-64
2022/04/27 16:27:30;;;;;;;9.85;4.30;;;;;;;14.27;73.66;100742.81;18435549;32;20512;-64
2022/04/27 16:37:35;;;;;;;8.27;3.72;;;;;;;14.02;75.07;100754.47;18435384;32;20138;-63
2022/04/27 16:47:38;;;;;;;11.82;4.60;;;;;;;13.91;75.73;100753.72;18434428;32;20109;-64
2022/04/27 16:57:43;;;;;;;13.85;5.10;;;;;;;14.18;74.02;100748.19;18434202;32;20456;-64
2022/04/27 17:07:46;;;;;;;11.98;5.03;;;;;;;14.06;74.81;100759.72;18435513;32;20163;-64
2022/04/27 17:17:51;;;;;;;11.63;5.05;;;;;;;14.00;75.42;100769.37;18434004;32;20084;-64
2022/04/27 17:27:56;;;;;;;15.75;6.53;;;;;;;14.08;75.17;100776.31;18433881;32;20101;-64
2022/04/27 17:38:01;;;;;;;11.43;4.78;;;;;;;14.11;75.22;100779.78;18433519;32;20097;-65
2022/04/27 17:48:04;;;;;;;12.10;4.95;;;;;;;14.02;74.94;100775.47;18433291;32;20404;-66
2022/04/27 17:58:09;;;;;;;11.02;4.07;;;;;;;14.00;74.65;100790.38;18432254;32;20115;-66
2022/04/27 18:08:12;;;;;;;10.35;4.00;;;;;;;13.84;75.26;100791.41;18417950;32;20089;-65
2022/04/27 18:18:19;;;;;;;10.07;3.95;;;;;;;14.18;73.39;100798.06;18431548;32;20158;-63
2022/04/27 18:28:22;;;;;;;7.28;3.08;;;;;;;13.77;74.96;100808.97;18418457;32;20133;-63
2022/04/27 18:38:27;;;;;;;8.63;3.78;;;;;;;13.77;74.64;100826.47;18432998;32;20114;-63
2022/04/27 18:58:54;;;;;;;9.13;3.43;;;;;;;13.88;74.07;100835.12;18424328;32;20492;-64
2022/04/27 19:08:58;;;;;;;7.22;3.35;;;;;;;13.66;74.41;100842.28;18426551;32;20113;-63
2022/04/27 19:19:04;;;;;;;8.80;3.58;;;;;;;13.69;74.32;100843.16;18418764;32;20142;-63
2022/04/27 19:29:08;;;;;;;7.57;3.25;;;;;;;13.68;73.87;100846.66;18425305;32;20885;-63
2022/04/27 19:39:15;;;;;;;7.57;3.33;;;;;;;13.66;74.02;100858.03;18428693;32;20124;-63
2022/04/27 19:49:19;;;;;;;8.18;3.15;;;;;;;13.70;73.20;100860.63;18410621;32;20413;-63
2022/04/27 19:59:24;;;;;;;7.95;3.33;;;;;;;13.59;73.65;100859.84;18395793;32;20112;-63
2022/04/27 20:09:27;;;;;;;6.85;2.70;;;;;;;13.51;73.61;100865.13;18406420;32;20653;-64
2022/04/27 20:19:32;;;;;;;6.68;2.72;;;;;;;13.65;73.07;100866.78;18426072;32;20111;-64
2022/04/27 20:29:36;;;;;;;6.40;3.10;;;;;;;13.51;73.09;100859.03;18415854;32;20115;-65
2022/04/27 20:39:41;;;;;;;6.65;2.80;;;;;;;13.68;73.04;100866.75;18432152;32;20096;-64
2022/04/27 20:49:45;;;;;;;5.75;2.53;;;;;;;13.70;72.87;100865.00;18433772;32;20097;-64
2022/04/27 20:59:50;;;;;;;7.15;2.92;;;;;;;13.80;72.17;100884.16;18398899;32;20104;-64
2022/04/27 21:09:53;;;;;;;7.57;2.80;;;;;;;13.60;73.10;100899.16;18428877;32;20089;-64
2022/04/27 21:19:58;;;;;;;5.57;2.53;;;;;;;13.60;72.77;100900.94;18428013;32;20096;-64
2022/04/27 21:30:01;;;;;;;5.22;2.58;;;;;;;13.66;72.98;100911.37;18419852;32;20092;-64
2022/04/27 21:40:07;;;;;;;8.15;3.12;;;;;;;13.76;72.22;100916.56;18433390;32;20116;-64
2022/04/27 21:50:11;;;;;;;7.85;2.55;;;;;;;13.69;73.16;100926.22;18433424;32;20101;-64
2022/04/27 22:01:05;;;;;;;7.93;3.15;;;;;;;13.97;71.49;100929.53;18433080;32;20140;-64
2022/04/27 22:11:01;;;;;;;5.45;2.47;;;;;;;13.65;72.50;100924.50;18432684;32;20097;-65
2022/04/27 22:21:06;;;;;;;6.47;2.50;;;;;;;13.59;71.36;100930.66;18417974;32;20093;-64
2022/04/27 22:31:10;;;;;;;7.50;3.03;;;;;;;13.48;72.10;100930.72;18432219;32;20142;-64
2022/04/27 22:41:15;;;;;;;6.43;2.62;;;;;;;13.71;71.00;100935.81;18431891;32;20129;-64
2022/04/27 22:51:19;;;;;;;6.80;3.00;;;;;;;13.74;70.63;100938.41;18431616;32;20377;-64
2022/04/27 23:01:23;;;;;;;8.75;3.60;;;;;;;14.00;68.99;100939.97;18430913;32;20093;-64
2022/04/27 23:11:27;;;;;;;6.28;2.53;;;;;;;13.66;70.49;100929.75;18430203;32;20118;-64
2022/04/27 23:21:31;;;;;;;7.55;3.10;;;;;;;13.24;71.86;100932.56;18416421;32;20446;-64
2022/04/27 23:31:34;;;;;;;7.12;2.80;;;;;;;13.24;72.98;100934.31;18414672;32;20111;-64
2022/04/27 23:41:39;;;;;;;7.00;2.62;;;;;;;13.00;73.56;100934.41;18428719;32;20089;-64
2022/04/27 23:51:42;;;;;;;7.20;2.67;;;;;;;12.72;72.70;100944.12;18424647;32;151981;-64
